Lantana, FL

7:52 PM EDT on April 18, 2015 (GMT -0400)
Lake Clarke Shores - Caribbean Rd. East | | Change Station
CLOSE
Current Station
Personal Weather Station
Location: Lake Clarke Shores, FL
Elevation: 16 ft
Nearby Weather Stations

Elev 16 ft 26.63 °N, 80.07 °W | Updated 4 seconds ago

Mostly Cloudy
Mostly Cloudy
82.0 °F
Feels Like 87 °F
N
5.8
Wind Variable Wind from SE
Gusts 5.8 mph

Today
High -- | Low -- °F
--% Chance of Precip.
Yesterday
High -- | Low -- °F
Precip. -- in
6:53 AM 7:45 PM
New Moon, 0% visible
Pressure 29.93 in
Visibility 10.0 miles
Clouds Mostly Cloudy 6000 ft
Mostly Cloudy 25000 ft
Heat Index 87 °F
Dew Point 73 °F
Humidity 74%
Rainfall 0.00 in
Snow Depth Not available.
UV 0 out of 12
Pollen 5.30 out of 12
Air Quality Not available.
Flu Activity Local Activity
METAR KPBI 182253Z 16011KT 10SM BKN060 BKN250 28/22 A2993 RMK AO2 SLP133 T02780217 $

More Conditions Fewer Conditions

Pressure 29.93 in
Visibility 10.0 miles
Clouds Mostly Cloudy 6000 ft
Mostly Cloudy 25000 ft
Heat Index 87 °F
Dew Point 73 °F
Humidity 74%
Rainfall 0.00 in
Snow Depth Not available.
UV 0 out of 12
Pollen 5.30 out of 12
Air Quality Not available.
Flu Activity Local Activity
METAR KPBI 182253Z 16011KT 10SM BKN060 BKN250 28/22 A2993 RMK AO2 SLP133 T02780217 $

More Conditions Fewer Conditions

Nowcast | as of 6:10 PM EDT on April 18, 2015

A few showers and thunderstorms will continue to develop across South Florida and move to the east at around 5 mph. Through 7 PM this evening, the strongest storms will affect the western shore of Lake Okeechobee and over rural areas of far western Miami-Dade and eastern Collier counties. Both of these areas will experience occasional lightning and brief heavy rainfall. Additional develop will still be possible through early this evening over the interior and East Coast Metro regions as well as the adjacent Atlantic coastal waters.

×

10-Day Weather Forecast

Almanac

Astronomy

Apr. 18, 2015 Rise Set
Actual Time
Civil Twilight
Nautical Twilight
Astronomical Twilight
Moon
Length of Visible Light
Length of Day
Tomorrow will be .
, % of the Moon is Illuminated

Today's Extremes

State Highs State Lows

Community

WunderPhotos

Upload Photos

1,814,580 photos uploaded!

WunderBlogs® & News

Nearby

Air Quality

  Air Quality AQ Index Pollutant
Not available.

Snow Depth

Station Depth Elevation

Earthquake Activity

City Distance Mag. Time & Date
Minimum magnitude displayed is 2.5.

Coastal Water Temperatures

Place Temperature

Stations

Nearby Weather Stations

Station Location Temp. Windchill Dew Point Humidity Wind Precip. Elev Updated Type